createdAt,value
2022-08-05T00:01:01.062Z,74.86
2022-08-05T00:02:21.468Z,75.02
2022-08-05T00:03:24.710Z,74.98
2022-08-05T00:04:29.468Z,74.83
2022-08-05T00:06:04.755Z,75.05
2022-08-05T00:06:56.827Z,74.98
2022-08-05T00:08:01.495Z,74.94
2022-08-05T00:09:12.828Z,75.10
2022-08-05T00:10:17.847Z,74.95
2022-08-05T00:11:30.284Z,75.21
2022-08-05T00:12:55.698Z,75.13
2022-08-05T00:14:01.339Z,75.25
2022-08-05T00:15:13.952Z,75.31
2022-08-05T00:16:36.226Z,75.44
2022-08-05T00:17:55.734Z,75.56
2022-08-05T00:18:59.302Z,75.37
2022-08-05T00:20:03.711Z,75.28
2022-08-05T00:21:08.483Z,75.68
2022-08-05T00:22:13.087Z,75.25
2022-08-05T00:23:16.367Z,75.14
2022-08-05T00:24:24.882Z,75.17
2022-08-05T00:25:45.387Z,75.23
2022-08-05T00:26:50.852Z,75.21
2022-08-05T00:27:55.496Z,75.33
2022-08-05T00:28:59.674Z,74.92
2022-08-05T00:30:03.439Z,74.86
2022-08-05T00:31:08.464Z,75.00
2022-08-05T00:32:14.979Z,74.91
2022-08-05T00:34:54.081Z,74.82
2022-08-05T00:35:05.197Z,74.93
2022-08-05T00:36:16.083Z,74.68
2022-08-05T00:37:51.359Z,74.74
2022-08-05T00:38:56.840Z,74.46
2022-08-05T00:40:04.154Z,74.93
2022-08-05T00:41:14.275Z,75.48
2022-08-05T00:42:31.534Z,75.80
2022-08-05T00:43:47.075Z,76.20
2022-08-05T00:44:53.125Z,76.38
2022-08-05T00:45:58.600Z,76.29
2022-08-05T00:47:04.073Z,76.52
2022-08-05T00:48:10.592Z,76.15
2022-08-05T00:49:14.699Z,75.88
2022-08-05T00:50:20.905Z,75.95
2022-08-05T00:51:51.525Z,75.75
2022-08-05T00:52:48.781Z,75.83
2022-08-05T00:54:02.432Z,75.64
2022-08-05T00:55:07.206Z,75.87
2022-08-05T00:56:11.606Z,75.87
2022-08-05T00:57:16.953Z,76.35
2022-08-05T00:58:27.353Z,76.04
2022-08-05T00:59:44.421Z,76.34
2022-08-05T01:00:50.183Z,76.18
2022-08-05T01:01:53.545Z,75.87
2022-08-05T01:02:59.733Z,75.80
2022-08-05T01:04:03.434Z,76.03
2022-08-05T01:05:17.938Z,76.36
2022-08-05T01:06:21.396Z,76.88
2022-08-05T01:07:36.972Z,77.16
2022-08-05T01:09:03.102Z,77.06
2022-08-05T01:10:09.150Z,77.06
2022-08-05T01:11:22.726Z,76.82
2022-08-05T01:12:30.106Z,76.89
2022-08-05T01:13:58.716Z,77.26
2022-08-05T01:15:05.857Z,77.33
2022-08-05T01:16:32.793Z,76.63
2022-08-05T01:17:44.096Z,76.55
2022-08-05T01:18:56.396Z,76.22
2022-08-05T01:20:07.954Z,76.20
2022-08-05T01:21:22.787Z,76.50
2022-08-05T01:22:34.280Z,76.33
2022-08-05T01:23:53.992Z,75.90
2022-08-05T01:25:41.021Z,76.19
2022-08-05T01:26:53.982Z,76.33
2022-08-05T01:28:24.138Z,75.92
2022-08-05T01:29:34.926Z,75.95
2022-08-05T01:30:50.658Z,76.15
2022-08-05T01:32:02.496Z,76.05
2022-08-05T01:33:09.349Z,75.95
2022-08-05T01:34:16.085Z,76.05
2022-08-05T01:35:52.147Z,76.36
2022-08-05T01:36:52.937Z,76.13
2022-08-05T01:37:57.514Z,76.44
2022-08-05T01:39:04.675Z,75.97
2022-08-05T01:40:13.063Z,76.49
2022-08-05T01:41:20.996Z,76.51
2022-08-05T01:42:28.569Z,76.37
2022-08-05T01:43:33.476Z,76.89
2022-08-05T01:44:39.526Z,76.78
2022-08-05T01:45:43.716Z,77.21
2022-08-05T01:47:02.684Z,77.01
2022-08-05T01:48:10.238Z,76.92
2022-08-05T01:49:23.169Z,76.96
2022-08-05T01:50:32.198Z,77.67
2022-08-05T01:51:36.593Z,77.43
2022-08-05T01:52:43.422Z,76.82
2022-08-05T01:53:58.004Z,77.13
2022-08-05T01:55:05.960Z,77.10
2022-08-05T01:56:10.664Z,77.08
2022-08-05T01:58:12.975Z,76.58
2022-08-05T01:58:45.337Z,76.85
2022-08-05T01:59:56.809Z,76.59
2022-08-05T02:01:04.774Z,76.69
2022-08-05T02:02:10.580Z,76.77
2022-08-05T02:03:24.519Z,77.33
2022-08-05T02:04:38.315Z,76.75
2022-08-05T02:05:46.076Z,77.32
2022-08-05T02:06:53.105Z,77.01
2022-08-05T02:08:00.366Z,76.89
2022-08-05T02:09:07.479Z,76.98
2022-08-05T02:10:11.236Z,77.71
2022-08-05T02:13:16.325Z,77.37
2022-08-05T02:14:29.576Z,77.28
2022-08-05T02:15:37.635Z,77.52
2022-08-05T02:16:52.458Z,77.24
2022-08-05T02:18:27.916Z,77.96
2022-08-05T02:19:34.199Z,77.75
2022-08-05T02:20:54.865Z,77.70
2022-08-05T02:22:17.497Z,78.03
2022-08-05T02:23:33.679Z,77.89
2022-08-05T02:24:40.663Z,77.81
2022-08-05T02:25:49.345Z,77.66
2022-08-05T02:26:57.946Z,77.81
2022-08-05T02:28:01.958Z,77.97
2022-08-05T02:29:21.306Z,77.21
2022-08-05T02:30:28.896Z,77.51
2022-08-05T02:31:35.376Z,77.59
2022-08-05T02:32:39.285Z,77.69
2022-08-05T02:33:57.177Z,77.27
2022-08-05T02:35:13.424Z,77.44
2022-08-05T02:36:20.247Z,77.88
2022-08-05T02:37:25.488Z,77.37
2022-08-05T02:38:35.243Z,77.63
2022-08-05T02:39:41.715Z,77.40
2022-08-05T02:41:00.348Z,77.46
2022-08-05T02:42:26.167Z,77.25
2022-08-05T02:43:31.925Z,77.22
2022-08-05T02:44:40.322Z,77.71
2022-08-05T02:45:53.985Z,78.03
2022-08-05T02:47:01.665Z,77.52
2022-08-05T02:48:11.435Z,77.39
2022-08-05T02:49:17.574Z,77.54
2022-08-05T02:50:22.445Z,77.81
2022-08-05T02:52:03.190Z,77.57
2022-08-05T02:52:53.104Z,78.41
2022-08-05T02:54:34.330Z,77.78
2022-08-05T02:55:51.892Z,77.54
2022-08-05T02:56:59.524Z,77.73
2022-08-05T02:58:09.707Z,77.92
2022-08-05T02:59:16.830Z,77.89
2022-08-05T03:00:27.028Z,77.76
2022-08-05T03:01:32.114Z,78.18
2022-08-05T03:02:39.193Z,78.58
2022-08-05T03:04:02.895Z,78.55
2022-08-05T03:06:57.087Z,78.65
2022-08-05T03:06:59.503Z,78.43
2022-08-05T03:08:08.984Z,77.94
2022-08-05T03:09:15.731Z,78.00
2022-08-05T03:10:24.889Z,78.78
2022-08-05T03:11:54.998Z,78.66
2022-08-05T03:12:54.313Z,79.15
2022-08-05T03:14:03.322Z,79.01
2022-08-05T03:15:09.580Z,79.08
2022-08-05T03:16:17.914Z,79.03
2022-08-05T03:17:25.180Z,78.19
2022-08-05T03:18:30.785Z,78.29
2022-08-05T03:19:36.105Z,78.28
2022-08-05T03:20:44.622Z,78.65
2022-08-05T03:21:52.272Z,79.15
2022-08-05T03:22:57.590Z,78.36
2022-08-05T03:24:02.425Z,78.79
2022-08-05T03:25:31.738Z,78.94
2022-08-05T03:26:32.966Z,78.72
2022-08-05T03:27:57.884Z,78.59
2022-08-05T03:29:01.832Z,79.03
2022-08-05T03:30:08.484Z,79.69
2022-08-05T03:31:25.847Z,79.00
2022-08-05T03:32:40.714Z,79.59
2022-08-05T03:33:53.057Z,79.14
2022-08-05T03:34:57.645Z,79.51
2022-08-05T03:36:01.333Z,79.65
2022-08-05T03:37:07.595Z,79.31
2022-08-05T03:38:12.195Z,79.27
2022-08-05T03:39:20.089Z,79.13
2022-08-05T03:40:32.127Z,79.52
2022-08-05T03:41:38.607Z,79.43
2022-08-05T03:42:52.589Z,79.69
2022-08-05T03:44:09.024Z,79.53
2022-08-05T03:45:21.647Z,79.66
2022-08-05T03:46:29.625Z,80.05
2022-08-05T03:47:35.580Z,80.08
2022-08-05T03:48:47.052Z,79.45
2022-08-05T03:49:51.336Z,79.95
2022-08-05T03:52:36.991Z,79.85
2022-08-05T03:55:00.016Z,80.21
2022-08-05T03:55:53.047Z,80.00
2022-08-05T03:56:09.380Z,79.66
2022-08-05T03:56:52.237Z,80.30
2022-08-05T03:57:56.839Z,79.74
2022-08-05T03:59:03.603Z,80.21
2022-08-05T04:00:11.314Z,80.71
2022-08-05T04:01:20.823Z,80.65
2022-08-05T04:02:39.194Z,80.75
2022-08-05T04:04:09.653Z,81.46
2022-08-05T04:05:15.003Z,81.60
2022-08-05T04:06:19.826Z,81.20
2022-08-05T04:07:24.895Z,82.01
2022-08-05T04:08:36.312Z,81.79
2022-08-05T04:09:53.392Z,81.93
2022-08-05T04:10:58.382Z,82.29
2022-08-05T04:12:01.814Z,81.84
2022-08-05T04:13:06.756Z,82.02
2022-08-05T04:14:09.989Z,82.15
2022-08-05T04:15:24.303Z,82.08
2022-08-05T04:16:32.734Z,82.30
2022-08-05T04:17:55.797Z,82.33
2022-08-05T04:19:01.893Z,82.86
2022-08-05T04:20:06.212Z,82.79
2022-08-05T04:22:05.061Z,83.27
2022-08-05T04:22:38.366Z,83.04
2022-08-05T04:24:05.738Z,82.78
2022-08-05T04:25:10.829Z,82.61
2022-08-05T04:26:14.559Z,82.55
2022-08-05T04:27:41.616Z,82.56
2022-08-05T04:28:50.859Z,82.62
2022-08-05T04:29:55.071Z,82.60
2022-08-05T04:31:01.011Z,82.82
2022-08-05T04:32:04.957Z,82.71
2022-08-05T04:33:11.680Z,82.36
2022-08-05T04:34:33.149Z,82.69
2022-08-05T04:36:16.270Z,82.71
2022-08-05T04:37:03.010Z,82.68
2022-08-05T04:38:07.072Z,82.78
2022-08-05T04:39:11.507Z,82.59
2022-08-05T04:40:19.314Z,82.54
2022-08-05T04:41:34.079Z,82.26
2022-08-05T04:42:41.787Z,82.29
2022-08-05T04:43:48.199Z,82.09
2022-08-05T04:44:57.263Z,82.15
2022-08-05T04:46:05.163Z,82.09
2022-08-05T04:47:10.486Z,82.20
2022-08-05T04:48:18.567Z,82.40
2022-08-05T04:50:01.016Z,82.40
2022-08-05T04:51:03.287Z,82.38
2022-08-05T04:52:14.247Z,82.39
2022-08-05T04:53:20.590Z,82.69
2022-08-05T04:54:27.255Z,82.88
2022-08-05T04:56:14.281Z,82.79
2022-08-05T04:56:59.021Z,83.00
2022-08-05T04:58:03.056Z,82.60
2022-08-05T04:59:24.097Z,82.89
2022-08-05T05:00:31.582Z,82.56
2022-08-05T05:02:08.231Z,82.68
2022-08-05T05:03:03.712Z,82.23
2022-08-05T05:04:07.651Z,82.41
2022-08-05T05:05:26.282Z,82.32
2022-08-05T05:06:40.505Z,81.77
2022-08-05T05:07:52.903Z,82.11
2022-08-05T05:09:00.758Z,81.67
2022-08-05T05:10:10.112Z,81.71
2022-08-05T05:11:15.315Z,81.52
2022-08-05T05:12:20.323Z,81.44
2022-08-05T05:13:26.515Z,81.33
2022-08-05T05:14:36.319Z,80.73
2022-08-05T05:15:56.358Z,80.79
2022-08-05T05:17:03.340Z,80.15
2022-08-05T05:18:08.179Z,79.83
2022-08-05T05:19:19.308Z,79.54
2022-08-05T05:20:29.083Z,79.34
2022-08-05T05:21:33.397Z,78.98
2022-08-05T05:22:40.857Z,78.56
2022-08-05T05:24:04.065Z,77.99
2022-08-05T05:25:16.343Z,77.60
2022-08-05T05:26:28.699Z,77.55
2022-08-05T05:27:41.664Z,77.27
2022-08-05T05:28:50.394Z,76.93
2022-08-05T05:30:04.516Z,76.76
2022-08-05T05:31:09.493Z,76.34
2022-08-05T05:32:12.881Z,76.04
2022-08-05T05:33:23.509Z,75.85
2022-08-05T05:34:27.381Z,75.55
2022-08-05T05:35:38.029Z,75.54
2022-08-05T05:36:43.922Z,75.74
2022-08-05T05:38:01.844Z,75.39
2022-08-05T05:39:09.479Z,74.83
2022-08-05T05:40:16.790Z,74.56
2022-08-05T05:41:24.046Z,74.53
2022-08-05T05:42:27.306Z,73.79
2022-08-05T05:43:57.229Z,73.17
2022-08-05T05:44:59.540Z,72.95
2022-08-05T05:46:02.781Z,72.08
2022-08-05T05:47:21.834Z,71.47
2022-08-05T05:48:27.755Z,70.67
2022-08-05T05:49:32.180Z,70.23
2022-08-05T05:50:44.223Z,69.86
2022-08-05T05:51:50.006Z,69.55
2022-08-05T05:52:54.916Z,68.77
2022-08-05T05:53:59.909Z,68.72
2022-08-05T05:55:07.412Z,68.54
2022-08-05T05:56:16.759Z,68.10
2022-08-05T05:57:51.921Z,67.77
2022-08-05T05:58:57.494Z,67.03
2022-08-05T06:00:10.374Z,66.35
2022-08-05T06:01:18.541Z,65.77
2022-08-05T06:02:36.792Z,65.47
2022-08-05T06:04:01.431Z,64.88
2022-08-05T06:05:10.409Z,64.53
2022-08-05T06:06:22.622Z,64.52
2022-08-05T06:07:41.218Z,63.58
2022-08-05T06:08:49.163Z,63.15
2022-08-05T06:10:01.431Z,63.07
2022-08-05T06:11:10.093Z,63.02
2022-08-05T06:12:16.682Z,62.73
2022-08-05T06:13:24.106Z,61.70
2022-08-05T06:14:28.854Z,60.93
2022-08-05T06:16:28.433Z,60.90
2022-08-05T06:16:58.312Z,60.26
2022-08-05T06:18:01.637Z,60.28
2022-08-05T06:19:07.885Z,59.75
2022-08-05T06:20:18.826Z,59.59
2022-08-05T06:21:36.769Z,59.14
2022-08-05T06:22:41.939Z,58.95
2022-08-05T06:23:45.845Z,58.65
2022-08-05T06:24:54.374Z,57.76
2022-08-05T06:26:13.436Z,58.12
2022-08-05T06:28:10.755Z,58.19
2022-08-05T06:28:47.253Z,58.29
2022-08-05T06:30:02.756Z,57.65
2022-08-05T06:31:18.122Z,57.77
2022-08-05T06:32:29.192Z,56.96
2022-08-05T06:34:05.957Z,56.26
2022-08-05T06:34:59.642Z,55.40
2022-08-05T06:36:10.270Z,54.91
2022-08-05T06:37:17.086Z,54.37
2022-08-05T06:38:47.086Z,54.48
2022-08-05T06:39:50.473Z,54.00
2022-08-05T06:40:54.805Z,53.48
2022-08-05T06:41:59.137Z,53.17
2022-08-05T06:43:03.732Z,52.81
2022-08-05T06:44:07.454Z,52.85
2022-08-05T06:45:21.202Z,52.61
2022-08-05T06:46:36.574Z,52.32
2022-08-05T06:48:11.647Z,52.35
2022-08-05T06:49:05.894Z,52.13
2022-08-05T06:50:17.208Z,52.28
2022-08-05T06:51:26.660Z,52.05
2022-08-05T06:52:40.333Z,51.42
2022-08-05T06:53:43.703Z,51.10
2022-08-05T06:54:57.995Z,51.70
2022-08-05T06:56:03.749Z,52.05
2022-08-05T06:57:13.872Z,51.15
2022-08-05T06:58:36.565Z,50.86
2022-08-05T06:59:42.395Z,50.85
2022-08-05T07:01:01.049Z,50.55
2022-08-05T07:02:04.891Z,50.82
2022-08-05T07:03:09.812Z,51.30
2022-08-05T07:04:13.962Z,51.05
2022-08-05T07:05:19.619Z,50.47
2022-08-05T07:06:27.741Z,49.68
2022-08-05T07:07:35.429Z,49.29
2022-08-05T07:08:53.197Z,49.68
2022-08-05T07:09:58.355Z,49.37
2022-08-05T07:11:03.060Z,49.10
2022-08-05T07:12:08.086Z,48.83
2022-08-05T07:13:56.815Z,49.45
2022-08-05T07:15:11.383Z,49.57
2022-08-05T07:17:58.749Z,48.72
2022-08-05T07:18:29.262Z,48.58
2022-08-05T07:20:57.886Z,47.44
2022-08-05T07:22:09.173Z,47.39
2022-08-05T07:23:13.018Z,47.44
2022-08-05T07:24:32.252Z,46.89
2022-08-05T07:25:55.069Z,47.06
2022-08-05T07:27:00.903Z,47.16
2022-08-05T07:28:09.640Z,46.20
2022-08-05T07:29:16.750Z,46.00
2022-08-05T07:30:25.409Z,46.16
2022-08-05T07:31:54.238Z,46.36
2022-08-05T07:32:59.306Z,46.20
2022-08-05T07:34:03.765Z,45.70
2022-08-05T07:36:02.194Z,45.52
2022-08-05T07:36:33.842Z,45.88
2022-08-05T07:37:39.524Z,45.69
2022-08-05T07:38:44.224Z,45.23
2022-08-05T07:40:25.994Z,45.59
2022-08-05T07:42:13.252Z,45.28
2022-08-05T07:42:41.083Z,45.33
2022-08-05T07:43:47.834Z,44.63
2022-08-05T07:44:52.064Z,44.29
2022-08-05T07:45:57.555Z,43.79
2022-08-05T07:47:02.844Z,43.58
2022-08-05T07:48:11.535Z,44.02
2022-08-05T07:49:18.641Z,43.54
2022-08-05T07:50:28.797Z,43.38
2022-08-05T07:51:48.461Z,42.88
2022-08-05T07:52:59.464Z,42.73
2022-08-05T07:54:04.403Z,42.51
2022-08-05T07:55:44.426Z,42.13
2022-08-05T07:57:02.421Z,42.27
2022-08-05T07:58:03.229Z,42.94
2022-08-05T07:59:08.846Z,42.48
2022-08-05T08:00:14.919Z,41.98
2022-08-05T08:01:22.014Z,42.43
2022-08-05T08:02:31.164Z,41.70
2022-08-05T08:03:51.427Z,42.03
2022-08-05T08:04:55.132Z,41.37
2022-08-05T08:05:59.480Z,41.27
2022-08-05T08:07:05.397Z,40.87
2022-08-05T08:08:12.250Z,40.72
2022-08-05T08:09:15.726Z,41.42
2022-08-05T08:10:21.644Z,41.89
2022-08-05T08:11:27.744Z,41.87
2022-08-05T08:12:50.614Z,40.89
2022-08-05T08:14:01.124Z,40.33
2022-08-05T08:15:05.337Z,40.66
2022-08-05T08:16:34.667Z,40.14
2022-08-05T08:17:46.314Z,40.83
2022-08-05T08:18:57.263Z,40.45
2022-08-05T08:20:43.360Z,39.91
2022-08-05T08:21:26.962Z,39.95
2022-08-05T08:22:30.052Z,39.03
2022-08-05T08:24:01.458Z,39.15
2022-08-05T08:25:03.367Z,39.03
2022-08-05T08:26:09.836Z,39.80
2022-08-05T08:27:16.559Z,39.30
2022-08-05T08:28:36.155Z,39.37
2022-08-05T08:30:05.171Z,39.43
2022-08-05T08:31:06.283Z,39.71
2022-08-05T08:32:10.869Z,39.40
2022-08-05T08:33:15.449Z,39.23
2022-08-05T08:34:30.187Z,38.98
2022-08-05T08:35:41.584Z,38.06
2022-08-05T08:37:04.653Z,38.21
2022-08-05T08:38:16.459Z,38.59
2022-08-05T08:39:21.998Z,37.59
2022-08-05T08:40:25.935Z,37.77
2022-08-05T08:41:52.244Z,37.18
2022-08-05T08:42:57.909Z,38.07
2022-08-05T08:45:24.059Z,37.93
2022-08-05T08:45:48.652Z,38.47
2022-08-05T08:46:53.614Z,37.73
2022-08-05T08:48:12.792Z,37.80
2022-08-05T08:50:11.305Z,38.27
2022-08-05T08:51:23.189Z,37.88
2022-08-05T08:52:20.435Z,37.26
2022-08-05T08:53:26.894Z,36.75
2022-08-05T08:54:32.245Z,37.49
2022-08-05T08:56:03.979Z,37.02
2022-08-05T08:57:03.289Z,37.63
2022-08-05T08:58:07.233Z,36.44
2022-08-05T08:59:14.890Z,36.94
2022-08-05T09:00:22.968Z,37.33
2022-08-05T09:01:27.744Z,37.36
2022-08-05T09:02:31.174Z,36.75
2022-08-05T09:03:40.412Z,36.62
2022-08-05T09:05:16.547Z,36.77
2022-08-05T09:06:16.940Z,36.70
2022-08-05T09:07:29.043Z,36.60
2022-08-05T09:08:43.871Z,36.13
2022-08-05T09:09:48.610Z,35.72
2022-08-05T09:10:54.536Z,35.65
2022-08-05T09:12:03.400Z,35.17
2022-08-05T09:13:19.799Z,35.03
2022-08-05T09:14:57.504Z,34.54
2022-08-05T09:15:53.988Z,34.71
2022-08-05T09:16:58.799Z,34.22
2022-08-05T09:18:04.164Z,34.03
2022-08-05T09:19:08.791Z,33.69
2022-08-05T09:20:21.067Z,34.44
2022-08-05T09:22:22.656Z,34.51
2022-08-05T09:23:09.241Z,34.04
2022-08-05T09:24:14.430Z,34.59
2022-08-05T09:25:24.441Z,34.05
2022-08-05T09:26:53.066Z,33.99
2022-08-05T09:28:05.743Z,34.87
2022-08-05T09:29:18.764Z,34.78
2022-08-05T09:30:23.431Z,33.90
2022-08-05T09:32:41.209Z,33.71
2022-08-05T09:32:53.642Z,33.52
2022-08-05T09:33:59.102Z,33.44
2022-08-05T09:35:11.965Z,32.55
2022-08-05T09:36:45.901Z,32.79
2022-08-05T09:38:17.046Z,33.75
2022-08-05T09:39:23.376Z,33.63
2022-08-05T09:40:33.763Z,32.83
2022-08-05T09:41:56.926Z,30.98
2022-08-05T09:43:02.471Z,32.35
2022-08-05T09:44:40.337Z,31.22
2022-08-05T09:46:07.339Z,32.24
2022-08-05T09:47:12.670Z,32.89
2022-08-05T09:48:29.551Z,32.26
2022-08-05T09:49:40.307Z,32.84
2022-08-05T09:50:59.062Z,32.79
2022-08-05T09:52:21.176Z,31.55
2022-08-05T09:53:54.938Z,32.52
2022-08-05T09:55:06.361Z,31.90
2022-08-05T09:56:29.714Z,32.54
2022-08-05T09:57:35.494Z,32.15
2022-08-05T09:58:44.842Z,31.99
2022-08-05T09:59:58.400Z,32.13
2022-08-05T10:01:15.364Z,31.36
2022-08-05T10:02:32.402Z,31.23
2022-08-05T10:03:56.786Z,31.29
2022-08-05T10:05:05.195Z,31.14
2022-08-05T10:06:15.609Z,31.39
2022-08-05T10:07:19.849Z,31.39
2022-08-05T10:08:35.704Z,31.09
2022-08-05T10:10:14.250Z,30.05
2022-08-05T10:11:21.412Z,31.06
2022-08-05T10:12:33.374Z,31.53
2022-08-05T10:13:47.475Z,30.85
2022-08-05T10:14:54.398Z,30.51
2022-08-05T10:16:00.864Z,30.21
2022-08-05T10:17:36.870Z,29.80
2022-08-05T10:18:38.453Z,30.08
2022-08-05T10:20:03.903Z,30.22
2022-08-05T10:21:08.539Z,30.05
2022-08-05T10:22:29.494Z,29.95
2022-08-05T10:23:59.529Z,30.54
2022-08-05T10:24:58.730Z,30.23
2022-08-05T10:26:05.314Z,29.61
2022-08-05T10:27:12.277Z,30.10
2022-08-05T10:28:29.452Z,30.51
2022-08-05T10:30:41.006Z,30.05
2022-08-05T10:32:54.509Z,30.92
2022-08-05T10:32:54.652Z,30.51
2022-08-05T10:33:52.349Z,30.38
2022-08-05T10:35:01.012Z,30.21
2022-08-05T10:36:06.802Z,30.47
2022-08-05T10:37:12.843Z,30.64
2022-08-05T10:38:18.154Z,30.19
2022-08-05T10:39:59.274Z,29.97
2022-08-05T10:41:05.843Z,30.87
2022-08-05T10:42:13.501Z,30.04
2022-08-05T10:43:35.594Z,29.31
2022-08-05T10:44:39.572Z,30.34
2022-08-05T10:46:06.458Z,28.67
2022-08-05T10:47:26.540Z,29.07
2022-08-05T10:48:40.647Z,29.94
2022-08-05T10:50:33.035Z,29.83
2022-08-05T10:51:29.026Z,30.56
2022-08-05T10:52:49.403Z,29.51
2022-08-05T10:54:00.996Z,29.68
2022-08-05T10:55:10.473Z,29.21
2022-08-05T10:56:25.967Z,29.57
2022-08-05T10:57:32.170Z,29.32
2022-08-05T10:58:48.584Z,29.75
2022-08-05T11:00:18.143Z,28.50
2022-08-05T11:01:55.471Z,28.57
2022-08-05T11:03:25.286Z,27.58
2022-08-05T11:04:31.795Z,29.94
2022-08-05T11:05:40.442Z,30.05
2022-08-05T11:07:07.534Z,29.54
2022-08-05T11:08:37.362Z,29.70
2022-08-05T11:09:46.189Z,28.83
2022-08-05T11:11:01.105Z,28.92
2022-08-05T11:12:50.738Z,27.85
2022-08-05T11:14:00.124Z,29.48
2022-08-05T11:15:19.376Z,29.16
2022-08-05T11:16:47.937Z,29.13
2022-08-05T11:18:07.474Z,28.80
2022-08-05T11:20:10.370Z,27.38
2022-08-05T11:20:53.194Z,28.62
2022-08-05T11:21:57.981Z,28.94
2022-08-05T11:23:08.798Z,28.68
2022-08-05T11:24:30.730Z,28.65
2022-08-05T11:26:04.180Z,28.50
2022-08-05T11:27:51.329Z,26.73
2022-08-05T11:28:56.272Z,27.99
2022-08-05T11:30:00.772Z,28.31
2022-08-05T11:31:57.685Z,26.78
2022-08-05T11:33:34.741Z,25.89
2022-08-05T11:34:54.320Z,27.95
2022-08-05T11:36:08.159Z,27.15
2022-08-05T11:38:30.912Z,27.34
2022-08-05T11:38:55.027Z,26.76
2022-08-05T11:40:03.849Z,27.47
2022-08-05T11:41:14.211Z,28.10
2022-08-05T11:42:37.631Z,27.85
2022-08-05T11:44:05.569Z,26.80
2022-08-05T11:45:14.412Z,27.43
2022-08-05T11:46:33.788Z,27.06
2022-08-05T11:47:49.701Z,26.52
2022-08-05T11:48:53.615Z,26.18
2022-08-05T11:50:00.802Z,26.09
2022-08-05T11:51:05.025Z,25.92
2022-08-05T11:52:11.793Z,26.06
2022-08-05T11:53:15.489Z,25.95
2022-08-05T11:54:33.815Z,25.47
2022-08-05T11:55:39.077Z,26.13
2022-08-05T11:56:50.470Z,25.67
2022-08-05T11:58:09.151Z,25.90
2022-08-05T11:59:16.917Z,26.24
2022-08-05T12:00:29.186Z,25.87
2022-08-05T12:01:33.834Z,25.90
2022-08-05T12:02:40.138Z,25.40
2022-08-05T12:03:44.923Z,25.51
2022-08-05T12:05:06.762Z,25.29
2022-08-05T12:06:12.394Z,24.69
2022-08-05T12:07:18.143Z,25.29
2022-08-05T12:08:49.725Z,25.67
2022-08-05T12:09:56.852Z,25.36
2022-08-05T12:11:05.834Z,24.98
2022-08-05T12:12:10.986Z,24.90
2022-08-05T12:13:18.914Z,25.40
2022-08-05T12:14:43.312Z,25.54
2022-08-05T12:15:50.473Z,25.22
2022-08-05T12:17:00.069Z,24.89
2022-08-05T12:18:10.675Z,25.07
2022-08-05T12:20:26.026Z,24.94
2022-08-05T12:20:42.346Z,25.45
2022-08-05T12:21:48.807Z,24.91
2022-08-05T12:22:52.035Z,25.31
2022-08-05T12:24:05.113Z,24.80
2022-08-05T12:25:14.333Z,24.74
2022-08-05T12:26:19.711Z,25.61
2022-08-05T12:27:25.339Z,25.05
2022-08-05T12:28:36.794Z,24.96
2022-08-05T12:29:42.566Z,24.81
2022-08-05T12:30:57.836Z,25.07
2022-08-05T12:32:09.587Z,24.60
2022-08-05T12:33:27.900Z,24.82
2022-08-05T12:34:38.803Z,25.44
2022-08-05T12:35:44.231Z,25.27
2022-08-05T12:36:53.570Z,24.63
2022-08-05T12:37:57.005Z,24.82
2022-08-05T12:39:01.218Z,24.44
2022-08-05T12:40:11.324Z,24.14
2022-08-05T12:41:34.424Z,24.69
2022-08-05T12:42:38.812Z,24.76
2022-08-05T12:43:52.625Z,24.59
2022-08-05T12:45:08.865Z,24.39
2022-08-05T12:46:28.114Z,23.73
2022-08-05T12:47:33.439Z,24.84
2022-08-05T12:48:39.278Z,24.55
2022-08-05T12:50:04.652Z,23.92
2022-08-05T12:51:21.869Z,25.09
2022-08-05T12:52:42.666Z,24.99
2022-08-05T12:53:55.609Z,24.64
2022-08-05T12:55:00.524Z,23.86
2022-08-05T12:56:34.015Z,24.11
2022-08-05T12:58:52.570Z,24.21
2022-08-05T12:59:13.860Z,23.09
2022-08-05T13:02:00.355Z,23.55
2022-08-05T13:02:01.007Z,23.81
2022-08-05T13:03:12.034Z,23.87
2022-08-05T13:04:21.356Z,23.72
2022-08-05T13:05:25.287Z,23.87
2022-08-05T13:06:52.030Z,24.25
2022-08-05T13:08:00.712Z,24.30
2022-08-05T13:09:09.305Z,23.77
2022-08-05T13:10:19.556Z,24.10
2022-08-05T13:11:47.058Z,23.62
2022-08-05T13:12:51.006Z,23.63
2022-08-05T13:14:06.053Z,23.22
2022-08-05T13:15:18.035Z,23.32
2022-08-05T13:16:28.383Z,23.51
2022-08-05T13:17:41.843Z,23.54
2022-08-05T13:18:52.171Z,23.45
2022-08-05T13:20:01.000Z,23.54
2022-08-05T13:21:05.030Z,23.62
2022-08-05T13:22:10.750Z,23.39
2022-08-05T13:23:16.359Z,23.59
2022-08-05T13:24:27.612Z,24.04
2022-08-05T13:25:52.152Z,24.03
2022-08-05T13:27:04.122Z,24.46
2022-08-05T13:28:07.872Z,24.32
2022-08-05T13:29:18.991Z,23.80
2022-08-05T13:30:33.583Z,24.34
2022-08-05T13:32:05.009Z,24.41
2022-08-05T13:33:04.873Z,24.92
2022-08-05T13:34:24.354Z,24.91
2022-08-05T13:35:43.237Z,24.94
2022-08-05T13:36:53.796Z,24.85
2022-08-05T13:38:05.051Z,24.83
2022-08-05T13:39:24.572Z,24.84
2022-08-05T13:40:51.816Z,24.58
2022-08-05T13:41:56.373Z,24.54
2022-08-05T13:43:00.192Z,24.67
2022-08-05T13:44:04.952Z,24.56
2022-08-05T13:45:11.287Z,24.77
2022-08-05T13:46:15.121Z,24.02
2022-08-05T13:47:35.825Z,24.37
2022-08-05T13:48:57.963Z,24.48
2022-08-05T13:50:04.566Z,24.29
2022-08-05T13:51:10.290Z,23.93
2022-08-05T13:52:16.154Z,23.77
2022-08-05T13:53:20.773Z,23.95
2022-08-05T13:54:26.595Z,23.53
2022-08-05T13:55:41.826Z,23.62
2022-08-05T13:56:54.052Z,23.87
2022-08-05T13:57:57.267Z,23.95
2022-08-05T13:59:06.237Z,23.67
2022-08-05T14:00:30.755Z,23.38
2022-08-05T14:01:44.260Z,23.25
2022-08-05T14:02:50.874Z,22.87
2022-08-05T14:04:12.348Z,22.81
2022-08-05T14:05:29.154Z,22.63
2022-08-05T14:06:35.771Z,22.98
2022-08-05T14:08:00.390Z,22.66
2022-08-05T14:09:08.980Z,22.97
2022-08-05T14:10:18.791Z,23.08
2022-08-05T14:11:22.867Z,22.68
2022-08-05T14:12:32.694Z,23.05
2022-08-05T14:13:38.566Z,23.12
2022-08-05T14:14:41.726Z,22.91
2022-08-05T14:16:07.450Z,23.32
2022-08-05T14:17:16.716Z,24.30
2022-08-05T14:18:23.215Z,23.94
2022-08-05T14:19:28.017Z,23.38
2022-08-05T14:20:34.488Z,23.30
2022-08-05T14:22:10.472Z,23.55
2022-08-05T14:23:01.921Z,23.43
2022-08-05T14:24:11.176Z,23.51
2022-08-05T14:25:21.967Z,23.42
2022-08-05T14:26:37.026Z,23.55
2022-08-05T14:27:47.334Z,23.48
2022-08-05T14:28:52.875Z,23.16
2022-08-05T14:29:56.312Z,23.99
2022-08-05T14:31:01.643Z,23.50
2022-08-05T14:32:13.123Z,23.52
2022-08-05T14:33:22.665Z,23.89
2022-08-05T14:34:27.714Z,23.82
2022-08-05T14:35:50.031Z,23.90
2022-08-05T14:36:54.740Z,24.08
2022-08-05T14:37:58.947Z,24.08
2022-08-05T14:39:06.023Z,24.00
2022-08-05T14:40:17.210Z,23.46
2022-08-05T14:41:20.722Z,23.71
2022-08-05T14:42:25.405Z,24.10
2022-08-05T14:43:57.567Z,24.00
2022-08-05T14:44:56.656Z,23.66
2022-08-05T14:46:01.161Z,24.62
2022-08-05T14:47:04.842Z,24.62
2022-08-05T14:48:32.322Z,24.43
2022-08-05T14:49:59.247Z,24.20
2022-08-05T14:51:01.956Z,24.55
2022-08-05T14:52:06.422Z,24.40
2022-08-05T14:53:14.335Z,24.28
2022-08-05T14:54:28.753Z,24.44
2022-08-05T14:55:39.130Z,24.00
2022-08-05T14:56:44.303Z,24.58
2022-08-05T14:57:55.969Z,24.34
2022-08-05T14:58:59.657Z,23.90
2022-08-05T15:00:05.823Z,24.47
2022-08-05T15:01:15.576Z,24.84
2022-08-05T15:02:21.161Z,24.22
2022-08-05T15:03:24.794Z,24.89
2022-08-05T15:04:29.327Z,23.99
2022-08-05T15:06:12.935Z,24.24
2022-08-05T15:07:02.428Z,23.89
2022-08-05T15:08:15.831Z,23.97
2022-08-05T15:09:51.618Z,24.48
2022-08-05T15:10:50.226Z,24.70
2022-08-05T15:11:55.051Z,24.37
2022-08-05T15:13:04.077Z,24.53
2022-08-05T15:14:08.994Z,24.55
2022-08-05T15:15:15.222Z,25.03
2022-08-05T15:16:18.756Z,24.38
2022-08-05T15:17:46.788Z,24.77
2022-08-05T15:18:49.714Z,24.83
2022-08-05T15:19:57.728Z,24.71
2022-08-05T15:21:07.688Z,23.87
2022-08-05T15:22:28.757Z,23.21
2022-08-05T15:23:33.426Z,23.88
2022-08-05T15:24:43.694Z,24.36
2022-08-05T15:25:53.453Z,24.48
2022-08-05T15:27:00.095Z,24.40
2022-08-05T15:28:05.199Z,23.93
2022-08-05T15:29:10.380Z,24.22
2022-08-05T15:30:20.003Z,24.34
2022-08-05T15:31:25.315Z,24.14
2022-08-05T15:32:38.833Z,24.68
2022-08-05T15:34:19.134Z,24.71